sensor_id;sensor_type;location;lat;lon;timestamp;P1;durP1;ratioP1;P2;durP2;ratioP2
76964;SDS011;65903;51.452;7.198;2023-12-04T00:00:10;18.25;;;10.48;;
76964;SDS011;65903;51.452;7.198;2023-12-04T00:01:11;15.82;;;10.77;;
76964;SDS011;65903;51.452;7.198;2023-12-04T00:02:11;18.02;;;9.55;;
76964;SDS011;65903;51.452;7.198;2023-12-04T00:03:12;17.35;;;10.18;;
76964;SDS011;65903;51.452;7.198;2023-12-04T00:04:15;15.43;;;9.35;;
76964;SDS011;65903;51.452;7.198;2023-12-04T00:05:16;16.98;;;9.13;;
76964;SDS011;65903;51.452;7.198;2023-12-04T00:06:17;17.23;;;10.80;;
76964;SDS011;65903;51.452;7.198;2023-12-04T00:07:17;14.25;;;8.88;;
76964;SDS011;65903;51.452;7.198;2023-12-04T00:08:19;15.70;;;10.07;;
76964;SDS011;65903;51.452;7.198;2023-12-04T00:09:20;15.90;;;9.23;;
76964;SDS011;65903;51.452;7.198;2023-12-04T00:10:20;12.90;;;8.15;;
76964;SDS011;65903;51.452;7.198;2023-12-04T00:11:21;17.05;;;10.65;;
76964;SDS011;65903;51.452;7.198;2023-12-04T00:12:21;13.50;;;9.00;;
76964;SDS011;65903;51.452;7.198;2023-12-04T00:13:21;18.05;;;9.13;;
76964;SDS011;65903;51.452;7.198;2023-12-04T00:14:22;16.52;;;9.68;;
76964;SDS011;65903;51.452;7.198;2023-12-04T00:15:22;15.18;;;9.30;;
76964;SDS011;65903;51.452;7.198;2023-12-04T00:16:23;14.15;;;9.70;;
76964;SDS011;65903;51.452;7.198;2023-12-04T00:17:24;13.00;;;9.18;;
76964;SDS011;65903;51.452;7.198;2023-12-04T00:18:25;18.23;;;9.95;;
76964;SDS011;65903;51.452;7.198;2023-12-04T00:19:25;16.10;;;10.27;;
76964;SDS011;65903;51.452;7.198;2023-12-04T00:20:26;14.07;;;8.85;;
76964;SDS011;65903;51.452;7.198;2023-12-04T00:21:26;16.30;;;9.68;;
76964;SDS011;65903;51.452;7.198;2023-12-04T00:22:26;12.95;;;9.25;;
76964;SDS011;65903;51.452;7.198;2023-12-04T00:23:29;14.55;;;9.50;;
76964;SDS011;65903;51.452;7.198;2023-12-04T00:24:30;15.15;;;9.18;;
76964;SDS011;65903;51.452;7.198;2023-12-04T00:25:30;17.40;;;10.02;;
76964;SDS011;65903;51.452;7.198;2023-12-04T00:26:31;19.13;;;9.32;;
76964;SDS011;65903;51.452;7.198;2023-12-04T00:27:31;15.05;;;10.07;;
76964;SDS011;65903;51.452;7.198;2023-12-04T00:28:31;14.57;;;9.73;;
76964;SDS011;65903;51.452;7.198;2023-12-04T00:29:32;13.35;;;9.30;;
76964;SDS011;65903;51.452;7.198;2023-12-04T00:30:32;17.30;;;10.30;;
76964;SDS011;65903;51.452;7.198;2023-12-04T00:31:33;13.65;;;9.32;;
76964;SDS011;65903;51.452;7.198;2023-12-04T00:32:33;12.52;;;7.65;;
76964;SDS011;65903;51.452;7.198;2023-12-04T00:33:33;18.27;;;10.13;;
76964;SDS011;65903;51.452;7.198;2023-12-04T00:34:34;15.52;;;8.50;;
76964;SDS011;65903;51.452;7.198;2023-12-04T00:35:34;13.05;;;8.43;;
76964;SDS011;65903;51.452;7.198;2023-12-04T00:36:35;12.95;;;8.73;;
76964;SDS011;65903;51.452;7.198;2023-12-04T00:37:36;17.85;;;11.20;;
76964;SDS011;65903;51.452;7.198;2023-12-04T00:38:39;13.40;;;9.20;;
76964;SDS011;65903;51.452;7.198;2023-12-04T00:39:40;13.88;;;7.68;;
76964;SDS011;65903;51.452;7.198;2023-12-04T00:40:41;13.50;;;9.23;;
76964;SDS011;65903;51.452;7.198;2023-12-04T00:41:41;12.77;;;9.93;;
76964;SDS011;65903;51.452;7.198;2023-12-04T00:42:41;15.52;;;9.52;;
76964;SDS011;65903;51.452;7.198;2023-12-04T00:43:42;14.82;;;8.98;;
76964;SDS011;65903;51.452;7.198;2023-12-04T00:44:42;15.70;;;9.80;;
76964;SDS011;65903;51.452;7.198;2023-12-04T00:45:42;13.52;;;8.77;;
76964;SDS011;65903;51.452;7.198;2023-12-04T00:46:43;12.45;;;8.50;;
76964;SDS011;65903;51.452;7.198;2023-12-04T00:47:43;13.30;;;9.02;;
76964;SDS011;65903;51.452;7.198;2023-12-04T00:48:45;12.65;;;8.85;;
76964;SDS011;65903;51.452;7.198;2023-12-04T00:49:46;13.05;;;9.43;;
76964;SDS011;65903;51.452;7.198;2023-12-04T00:50:46;10.82;;;9.50;;
76964;SDS011;65903;51.452;7.198;2023-12-04T00:51:47;14.57;;;9.60;;
76964;SDS011;65903;51.452;7.198;2023-12-04T00:52:48;14.68;;;9.18;;
76964;SDS011;65903;51.452;7.198;2023-12-04T00:53:48;13.52;;;9.15;;
76964;SDS011;65903;51.452;7.198;2023-12-04T00:54:49;14.45;;;9.75;;
76964;SDS011;65903;51.452;7.198;2023-12-04T00:55:49;14.65;;;9.20;;
76964;SDS011;65903;51.452;7.198;2023-12-04T00:56:50;15.95;;;9.38;;
76964;SDS011;65903;51.452;7.198;2023-12-04T00:57:50;12.38;;;8.20;;
76964;SDS011;65903;51.452;7.198;2023-12-04T00:58:51;13.43;;;7.88;;
76964;SDS011;65903;51.452;7.198;2023-12-04T00:59:51;15.55;;;9.18;;
76964;SDS011;65903;51.452;7.198;2023-12-04T01:00:52;12.45;;;8.32;;
76964;SDS011;65903;51.452;7.198;2023-12-04T01:01:53;14.55;;;8.55;;
76964;SDS011;65903;51.452;7.198;2023-12-04T01:02:54;13.07;;;8.32;;
76964;SDS011;65903;51.452;7.198;2023-12-04T01:03:56;13.57;;;7.70;;
76964;SDS011;65903;51.452;7.198;2023-12-04T01:04:57;14.63;;;9.95;;
76964;SDS011;65903;51.452;7.198;2023-12-04T01:05:58;14.23;;;8.70;;
76964;SDS011;65903;51.452;7.198;2023-12-04T01:07:01;13.35;;;9.18;;
76964;SDS011;65903;51.452;7.198;2023-12-04T01:08:02;12.93;;;8.82;;
76964;SDS011;65903;51.452;7.198;2023-12-04T01:09:02;15.20;;;8.50;;
76964;SDS011;65903;51.452;7.198;2023-12-04T01:10:03;12.23;;;7.68;;
76964;SDS011;65903;51.452;7.198;2023-12-04T01:11:03;14.27;;;7.97;;
76964;SDS011;65903;51.452;7.198;2023-12-04T01:12:04;16.08;;;8.02;;
76964;SDS011;65903;51.452;7.198;2023-12-04T01:13:04;12.00;;;8.32;;
76964;SDS011;65903;51.452;7.198;2023-12-04T01:14:06;14.70;;;9.82;;
76964;SDS011;65903;51.452;7.198;2023-12-04T01:15:07;15.05;;;9.23;;
76964;SDS011;65903;51.452;7.198;2023-12-04T01:16:09;12.10;;;7.70;;
76964;SDS011;65903;51.452;7.198;2023-12-04T01:17:10;11.75;;;7.72;;
76964;SDS011;65903;51.452;7.198;2023-12-04T01:18:11;12.43;;;7.45;;
76964;SDS011;65903;51.452;7.198;2023-12-04T01:19:12;14.68;;;8.27;;
76964;SDS011;65903;51.452;7.198;2023-12-04T01:20:13;13.15;;;8.23;;
76964;SDS011;65903;51.452;7.198;2023-12-04T01:21:14;10.13;;;6.47;;
76964;SDS011;65903;51.452;7.198;2023-12-04T01:22:15;11.93;;;8.00;;
76964;SDS011;65903;51.452;7.198;2023-12-04T01:23:16;12.93;;;7.97;;
76964;SDS011;65903;51.452;7.198;2023-12-04T01:24:16;11.10;;;7.15;;
76964;SDS011;65903;51.452;7.198;2023-12-04T01:25:16;12.15;;;7.82;;
76964;SDS011;65903;51.452;7.198;2023-12-04T01:26:17;11.77;;;8.55;;
76964;SDS011;65903;51.452;7.198;2023-12-04T01:27:18;11.55;;;7.55;;
76964;SDS011;65903;51.452;7.198;2023-12-04T01:28:19;13.27;;;8.40;;
76964;SDS011;65903;51.452;7.198;2023-12-04T01:29:19;10.80;;;7.30;;
76964;SDS011;65903;51.452;7.198;2023-12-04T01:30:20;10.27;;;6.78;;
76964;SDS011;65903;51.452;7.198;2023-12-04T01:31:21;12.73;;;7.30;;
76964;SDS011;65903;51.452;7.198;2023-12-04T01:32:22;12.73;;;7.88;;
76964;SDS011;65903;51.452;7.198;2023-12-04T01:33:23;12.85;;;7.95;;
76964;SDS011;65903;51.452;7.198;2023-12-04T01:34:23;10.90;;;7.70;;
76964;SDS011;65903;51.452;7.198;2023-12-04T01:35:23;9.32;;;6.55;;
76964;SDS011;65903;51.452;7.198;2023-12-04T01:36:24;11.57;;;7.85;;
76964;SDS011;65903;51.452;7.198;2023-12-04T01:37:24;11.00;;;6.88;;
76964;SDS011;65903;51.452;7.198;2023-12-04T01:38:24;9.65;;;6.25;;
76964;SDS011;65903;51.452;7.198;2023-12-04T01:39:25;12.00;;;7.50;;
76964;SDS011;65903;51.452;7.198;2023-12-04T01:40:25;12.05;;;7.65;;
76964;SDS011;65903;51.452;7.198;2023-12-04T01:41:26;13.60;;;7.55;;
76964;SDS011;65903;51.452;7.198;2023-12-04T01:42:27;13.05;;;7.30;;
76964;SDS011;65903;51.452;7.198;2023-12-04T01:43:28;11.88;;;6.78;;
76964;SDS011;65903;51.452;7.198;2023-12-04T01:44:29;11.50;;;8.18;;
76964;SDS011;65903;51.452;7.198;2023-12-04T01:45:30;11.20;;;8.85;;
76964;SDS011;65903;51.452;7.198;2023-12-04T01:46:31;12.43;;;6.90;;
76964;SDS011;65903;51.452;7.198;2023-12-04T01:47:32;11.23;;;7.15;;
76964;SDS011;65903;51.452;7.198;2023-12-04T01:48:34;10.95;;;7.03;;
76964;SDS011;65903;51.452;7.198;2023-12-04T01:49:34;12.40;;;7.10;;
76964;SDS011;65903;51.452;7.198;2023-12-04T01:50:35;10.75;;;7.63;;
76964;SDS011;65903;51.452;7.198;2023-12-04T01:51:35;12.07;;;7.80;;
76964;SDS011;65903;51.452;7.198;2023-12-04T01:52:36;9.82;;;6.43;;
76964;SDS011;65903;51.452;7.198;2023-12-04T01:53:39;11.93;;;7.55;;
76964;SDS011;65903;51.452;7.198;2023-12-04T01:54:40;10.63;;;7.07;;
76964;SDS011;65903;51.452;7.198;2023-12-04T01:55:40;12.88;;;7.65;;
76964;SDS011;65903;51.452;7.198;2023-12-04T01:56:41;10.38;;;6.97;;
76964;SDS011;65903;51.452;7.198;2023-12-04T01:57:41;11.00;;;8.15;;
76964;SDS011;65903;51.452;7.198;2023-12-04T01:58:42;11.95;;;7.47;;
76964;SDS011;65903;51.452;7.198;2023-12-04T01:59:42;12.00;;;7.55;;
76964;SDS011;65903;51.452;7.198;2023-12-04T02:00:44;12.55;;;7.38;;
76964;SDS011;65903;51.452;7.198;2023-12-04T02:01:47;10.88;;;7.65;;
76964;SDS011;65903;51.452;7.198;2023-12-04T02:02:48;9.90;;;6.28;;
76964;SDS011;65903;51.452;7.198;2023-12-04T02:03:49;9.45;;;7.53;;
76964;SDS011;65903;51.452;7.198;2023-12-04T02:04:50;9.65;;;6.57;;
76964;SDS011;65903;51.452;7.198;2023-12-04T02:05:52;12.48;;;7.53;;
76964;SDS011;65903;51.452;7.198;2023-12-04T02:06:53;7.60;;;6.65;;
76964;SDS011;65903;51.452;7.198;2023-12-04T02:07:55;12.27;;;6.40;;
76964;SDS011;65903;51.452;7.198;2023-12-04T02:08:56;9.40;;;7.07;;
76964;SDS011;65903;51.452;7.198;2023-12-04T02:09:58;11.10;;;6.50;;
76964;SDS011;65903;51.452;7.198;2023-12-04T02:10:59;10.20;;;7.20;;
76964;SDS011;65903;51.452;7.198;2023-12-04T02:12:00;10.35;;;7.15;;
76964;SDS011;65903;51.452;7.198;2023-12-04T02:13:01;11.70;;;6.88;;
76964;SDS011;65903;51.452;7.198;2023-12-04T02:14:01;10.63;;;6.82;;
76964;SDS011;65903;51.452;7.198;2023-12-04T02:15:01;11.90;;;6.90;;
76964;SDS011;65903;51.452;7.198;2023-12-04T02:16:03;10.50;;;6.35;;
76964;SDS011;65903;51.452;7.198;2023-12-04T02:17:06;9.63;;;6.95;;
76964;SDS011;65903;51.452;7.198;2023-12-04T02:18:08;9.88;;;6.07;;
76964;SDS011;65903;51.452;7.198;2023-12-04T02:19:11;9.60;;;6.47;;
76964;SDS011;65903;51.452;7.198;2023-12-04T02:21:13;7.60;;;5.70;;
76964;SDS011;65903;51.452;7.198;2023-12-04T02:22:13;10.20;;;6.90;;
76964;SDS011;65903;51.452;7.198;2023-12-04T02:23:14;10.45;;;7.25;;
76964;SDS011;65903;51.452;7.198;2023-12-04T02:24:14;9.90;;;6.97;;
76964;SDS011;65903;51.452;7.198;2023-12-04T02:25:15;10.77;;;7.78;;
76964;SDS011;65903;51.452;7.198;2023-12-04T02:26:16;9.52;;;6.80;;
76964;SDS011;65903;51.452;7.198;2023-12-04T02:27:22;11.55;;;7.45;;
76964;SDS011;65903;51.452;7.198;2023-12-04T02:28:23;10.13;;;5.97;;
76964;SDS011;65903;51.452;7.198;2023-12-04T02:29:32;12.73;;;7.15;;
76964;SDS011;65903;51.452;7.198;2023-12-04T02:31:39;9.82;;;6.97;;
76964;SDS011;65903;51.452;7.198;2023-12-04T02:32:44;11.50;;;7.55;;
76964;SDS011;65903;51.452;7.198;2023-12-04T02:33:47;11.55;;;7.03;;
76964;SDS011;65903;51.452;7.198;2023-12-04T02:34:48;11.23;;;7.57;;
76964;SDS011;65903;51.452;7.198;2023-12-04T02:35:49;7.72;;;5.95;;
76964;SDS011;65903;51.452;7.198;2023-12-04T02:36:50;9.25;;;6.10;;
76964;SDS011;65903;51.452;7.198;2023-12-04T02:37:52;11.00;;;7.13;;
76964;SDS011;65903;51.452;7.198;2023-12-04T02:38:53;9.68;;;6.47;;
76964;SDS011;65903;51.452;7.198;2023-12-04T02:39:53;10.20;;;6.57;;
76964;SDS011;65903;51.452;7.198;2023-12-04T02:40:55;9.48;;;6.15;;
76964;SDS011;65903;51.452;7.198;2023-12-04T02:41:56;9.35;;;6.72;;
76964;SDS011;65903;51.452;7.198;2023-12-04T02:42:57;9.45;;;6.47;;
76964;SDS011;65903;51.452;7.198;2023-12-04T02:43:58;9.10;;;6.40;;
76964;SDS011;65903;51.452;7.198;2023-12-04T02:45:00;9.90;;;6.72;;
76964;SDS011;65903;51.452;7.198;2023-12-04T02:46:02;10.60;;;7.63;;
76964;SDS011;65903;51.452;7.198;2023-12-04T02:47:03;9.32;;;6.40;;
76964;SDS011;65903;51.452;7.198;2023-12-04T02:49:06;9.88;;;6.25;;
76964;SDS011;65903;51.452;7.198;2023-12-04T02:50:07;13.02;;;7.00;;
76964;SDS011;65903;51.452;7.198;2023-12-04T02:51:08;9.82;;;6.63;;
76964;SDS011;65903;51.452;7.198;2023-12-04T02:52:08;12.43;;;7.38;;
76964;SDS011;65903;51.452;7.198;2023-12-04T02:53:09;10.48;;;6.65;;
76964;SDS011;65903;51.452;7.198;2023-12-04T02:54:09;9.63;;;7.47;;
76964;SDS011;65903;51.452;7.198;2023-12-04T02:55:10;8.52;;;6.38;;
76964;SDS011;65903;51.452;7.198;2023-12-04T02:56:11;10.70;;;7.13;;
76964;SDS011;65903;51.452;7.198;2023-12-04T02:57:13;8.38;;;5.35;;
76964;SDS011;65903;51.452;7.198;2023-12-04T02:58:13;7.85;;;4.88;;
76964;SDS011;65903;51.452;7.198;2023-12-04T02:59:13;10.35;;;7.07;;
76964;SDS011;65903;51.452;7.198;2023-12-04T03:00:15;7.85;;;5.40;;
76964;SDS011;65903;51.452;7.198;2023-12-04T03:01:16;7.90;;;5.75;;
76964;SDS011;65903;51.452;7.198;2023-12-04T03:02:18;11.30;;;6.78;;
76964;SDS011;65903;51.452;7.198;2023-12-04T03:03:19;9.77;;;6.07;;
76964;SDS011;65903;51.452;7.198;2023-12-04T03:04:20;10.73;;;7.07;;
76964;SDS011;65903;51.452;7.198;2023-12-04T03:05:20;9.32;;;6.20;;
76964;SDS011;65903;51.452;7.198;2023-12-04T03:06:21;8.30;;;5.10;;
76964;SDS011;65903;51.452;7.198;2023-12-04T03:07:22;10.48;;;6.53;;
76964;SDS011;65903;51.452;7.198;2023-12-04T03:08:24;7.80;;;5.45;;
76964;SDS011;65903;51.452;7.198;2023-12-04T03:09:25;8.38;;;5.80;;
76964;SDS011;65903;51.452;7.198;2023-12-04T03:10:25;9.88;;;5.93;;
76964;SDS011;65903;51.452;7.198;2023-12-04T03:11:26;9.18;;;6.55;;
76964;SDS011;65903;51.452;7.198;2023-12-04T03:12:26;9.90;;;5.80;;
76964;SDS011;65903;51.452;7.198;2023-12-04T03:13:27;10.40;;;5.68;;
76964;SDS011;65903;51.452;7.198;2023-12-04T03:14:27;9.00;;;5.70;;
76964;SDS011;65903;51.452;7.198;2023-12-04T03:15:28;10.95;;;6.30;;
76964;SDS011;65903;51.452;7.198;2023-12-04T03:16:29;8.70;;;5.60;;
76964;SDS011;65903;51.452;7.198;2023-12-04T03:17:29;8.75;;;5.45;;
76964;SDS011;65903;51.452;7.198;2023-12-04T03:18:30;7.55;;;5.18;;
76964;SDS011;65903;51.452;7.198;2023-12-04T03:19:30;10.20;;;5.15;;
76964;SDS011;65903;51.452;7.198;2023-12-04T03:20:32;7.82;;;5.32;;
76964;SDS011;65903;51.452;7.198;2023-12-04T03:21:35;8.63;;;6.25;;
76964;SDS011;65903;51.452;7.198;2023-12-04T03:22:36;8.73;;;6.00;;
76964;SDS011;65903;51.452;7.198;2023-12-04T03:23:38;7.85;;;5.75;;
76964;SDS011;65903;51.452;7.198;2023-12-04T03:24:38;9.70;;;5.88;;
76964;SDS011;65903;51.452;7.198;2023-12-04T03:25:38;11.30;;;5.50;;
76964;SDS011;65903;51.452;7.198;2023-12-04T03:26:39;8.23;;;6.43;;
76964;SDS011;65903;51.452;7.198;2023-12-04T03:27:41;11.98;;;6.97;;
76964;SDS011;65903;51.452;7.198;2023-12-04T03:28:42;8.68;;;6.10;;
76964;SDS011;65903;51.452;7.198;2023-12-04T03:29:42;8.32;;;5.88;;
76964;SDS011;65903;51.452;7.198;2023-12-04T03:30:43;8.95;;;5.90;;
76964;SDS011;65903;51.452;7.198;2023-12-04T03:31:45;9.52;;;6.07;;
76964;SDS011;65903;51.452;7.198;2023-12-04T03:32:46;10.32;;;6.75;;
76964;SDS011;65903;51.452;7.198;2023-12-04T03:33:47;9.45;;;6.55;;
76964;SDS011;65903;51.452;7.198;2023-12-04T03:34:48;8.25;;;5.95;;
76964;SDS011;65903;51.452;7.198;2023-12-04T03:35:48;8.85;;;5.40;;
76964;SDS011;65903;51.452;7.198;2023-12-04T03:36:49;9.27;;;5.80;;
76964;SDS011;65903;51.452;7.198;2023-12-04T03:37:49;9.60;;;5.57;;
76964;SDS011;65903;51.452;7.198;2023-12-04T03:38:50;8.00;;;5.20;;
76964;SDS011;65903;51.452;7.198;2023-12-04T03:39:50;9.57;;;5.72;;
76964;SDS011;65903;51.452;7.198;2023-12-04T03:40:51;10.60;;;5.93;;
76964;SDS011;65903;51.452;7.198;2023-12-04T03:41:51;9.50;;;5.25;;
76964;SDS011;65903;51.452;7.198;2023-12-04T03:42:52;8.38;;;4.85;;
76964;SDS011;65903;51.452;7.198;2023-12-04T03:43:53;9.23;;;5.43;;
76964;SDS011;65903;51.452;7.198;2023-12-04T03:44:53;9.00;;;6.13;;
76964;SDS011;65903;51.452;7.198;2023-12-04T03:45:53;8.60;;;5.60;;
76964;SDS011;65903;51.452;7.198;2023-12-04T03:46:54;9.85;;;5.97;;
76964;SDS011;65903;51.452;7.198;2023-12-04T03:47:54;9.68;;;5.53;;
76964;SDS011;65903;51.452;7.198;2023-12-04T03:48:55;8.20;;;5.57;;
76964;SDS011;65903;51.452;7.198;2023-12-04T03:49:55;8.68;;;5.45;;
76964;SDS011;65903;51.452;7.198;2023-12-04T03:50:56;6.95;;;5.07;;
76964;SDS011;65903;51.452;7.198;2023-12-04T03:51:56;7.70;;;5.60;;
76964;SDS011;65903;51.452;7.198;2023-12-04T03:52:57;8.35;;;5.85;;
76964;SDS011;65903;51.452;7.198;2023-12-04T03:53:57;7.60;;;5.95;;
76964;SDS011;65903;51.452;7.198;2023-12-04T03:54:58;8.85;;;5.95;;
76964;SDS011;65903;51.452;7.198;2023-12-04T03:55:58;6.10;;;4.70;;
76964;SDS011;65903;51.452;7.198;2023-12-04T03:56:59;7.95;;;5.70;;
76964;SDS011;65903;51.452;7.198;2023-12-04T03:58:01;9.23;;;7.53;;
76964;SDS011;65903;51.452;7.198;2023-12-04T03:59:02;6.55;;;4.50;;
76964;SDS011;65903;51.452;7.198;2023-12-04T04:00:03;8.27;;;5.45;;
76964;SDS011;65903;51.452;7.198;2023-12-04T04:01:04;8.40;;;6.07;;
76964;SDS011;65903;51.452;7.198;2023-12-04T04:02:04;7.95;;;5.10;;
76964;SDS011;65903;51.452;7.198;2023-12-04T04:03:06;6.47;;;4.72;;
76964;SDS011;65903;51.452;7.198;2023-12-04T04:04:07;8.50;;;5.38;;
76964;SDS011;65903;51.452;7.198;2023-12-04T04:05:08;6.53;;;5.28;;
76964;SDS011;65903;51.452;7.198;2023-12-04T04:06:09;7.35;;;5.07;;
76964;SDS011;65903;51.452;7.198;2023-12-04T04:07:10;6.93;;;4.95;;
76964;SDS011;65903;51.452;7.198;2023-12-04T04:08:10;7.25;;;4.88;;
76964;SDS011;65903;51.452;7.198;2023-12-04T04:09:11;7.85;;;5.13;;
76964;SDS011;65903;51.452;7.198;2023-12-04T04:10:12;8.20;;;5.57;;
76964;SDS011;65903;51.452;7.198;2023-12-04T04:11:13;7.57;;;5.00;;
76964;SDS011;65903;51.452;7.198;2023-12-04T04:12:13;7.57;;;4.88;;
76964;SDS011;65903;51.452;7.198;2023-12-04T04:13:13;8.63;;;5.18;;
76964;SDS011;65903;51.452;7.198;2023-12-04T04:14:14;7.72;;;5.32;;
76964;SDS011;65903;51.452;7.198;2023-12-04T04:15:14;6.50;;;4.07;;
76964;SDS011;65903;51.452;7.198;2023-12-04T04:16:15;9.13;;;4.78;;
76964;SDS011;65903;51.452;7.198;2023-12-04T04:17:18;6.93;;;5.30;;
76964;SDS011;65903;51.452;7.198;2023-12-04T04:18:19;8.88;;;5.47;;
76964;SDS011;65903;51.452;7.198;2023-12-04T04:19:19;7.22;;;5.22;;
76964;SDS011;65903;51.452;7.198;2023-12-04T04:20:20;6.30;;;4.75;;
76964;SDS011;65903;51.452;7.198;2023-12-04T04:21:20;9.80;;;4.57;;
76964;SDS011;65903;51.452;7.198;2023-12-04T04:22:22;7.43;;;5.32;;
76964;SDS011;65903;51.452;7.198;2023-12-04T04:23:22;6.45;;;4.93;;
76964;SDS011;65903;51.452;7.198;2023-12-04T04:24:23;7.15;;;5.15;;
76964;SDS011;65903;51.452;7.198;2023-12-04T04:25:24;5.85;;;4.30;;
76964;SDS011;65903;51.452;7.198;2023-12-04T04:26:25;8.05;;;5.35;;
76964;SDS011;65903;51.452;7.198;2023-12-04T04:27:25;7.22;;;5.53;;
76964;SDS011;65903;51.452;7.198;2023-12-04T04:28:26;7.68;;;5.07;;
76964;SDS011;65903;51.452;7.198;2023-12-04T04:29:26;9.45;;;5.40;;
76964;SDS011;65903;51.452;7.198;2023-12-04T04:30:26;7.68;;;5.10;;
76964;SDS011;65903;51.452;7.198;2023-12-04T04:31:27;7.55;;;5.65;;
76964;SDS011;65903;51.452;7.198;2023-12-04T04:32:27;7.35;;;4.68;;
76964;SDS011;65903;51.452;7.198;2023-12-04T04:33:28;7.25;;;5.75;;
76964;SDS011;65903;51.452;7.198;2023-12-04T04:34:29;6.53;;;5.00;;
76964;SDS011;65903;51.452;7.198;2023-12-04T04:35:30;8.68;;;5.13;;
76964;SDS011;65903;51.452;7.198;2023-12-04T04:36:32;6.50;;;5.22;;
76964;SDS011;65903;51.452;7.198;2023-12-04T04:38:36;8.05;;;6.07;;
76964;SDS011;65903;51.452;7.198;2023-12-04T04:39:37;7.35;;;5.05;;
76964;SDS011;65903;51.452;7.198;2023-12-04T04:40:39;8.10;;;5.72;;
76964;SDS011;65903;51.452;7.198;2023-12-04T04:41:43;7.57;;;5.38;;
76964;SDS011;65903;51.452;7.198;2023-12-04T04:42:45;6.30;;;5.00;;
76964;SDS011;65903;51.452;7.198;2023-12-04T04:43:48;6.85;;;4.68;;
76964;SDS011;65903;51.452;7.198;2023-12-04T04:44:49;8.57;;;5.13;;
76964;SDS011;65903;51.452;7.198;2023-12-04T04:45:50;6.70;;;5.13;;
76964;SDS011;65903;51.452;7.198;2023-12-04T04:46:51;7.38;;;4.97;;
76964;SDS011;65903;51.452;7.198;2023-12-04T04:47:52;6.80;;;5.22;;
76964;SDS011;65903;51.452;7.198;2023-12-04T04:48:52;7.45;;;5.13;;
76964;SDS011;65903;51.452;7.198;2023-12-04T04:49:53;6.95;;;5.05;;
76964;SDS011;65903;51.452;7.198;2023-12-04T04:50:54;7.03;;;5.03;;
76964;SDS011;65903;51.452;7.198;2023-12-04T04:51:54;7.05;;;5.03;;
76964;SDS011;65903;51.452;7.198;2023-12-04T04:52:56;7.55;;;5.50;;
76964;SDS011;65903;51.452;7.198;2023-12-04T04:53:56;6.30;;;4.78;;
76964;SDS011;65903;51.452;7.198;2023-12-04T04:54:56;7.57;;;4.95;;
76964;SDS011;65903;51.452;7.198;2023-12-04T04:55:56;7.10;;;4.22;;
76964;SDS011;65903;51.452;7.198;2023-12-04T04:56:57;9.52;;;5.10;;
76964;SDS011;65903;51.452;7.198;2023-12-04T04:57:58;6.57;;;4.40;;
76964;SDS011;65903;51.452;7.198;2023-12-04T04:58:58;7.55;;;4.78;;
76964;SDS011;65903;51.452;7.198;2023-12-04T04:59:59;6.03;;;4.20;;
76964;SDS011;65903;51.452;7.198;2023-12-04T05:01:00;7.78;;;4.97;;
76964;SDS011;65903;51.452;7.198;2023-12-04T05:02:00;7.25;;;4.78;;
76964;SDS011;65903;51.452;7.198;2023-12-04T05:03:01;6.15;;;4.18;;
76964;SDS011;65903;51.452;7.198;2023-12-04T05:04:02;7.28;;;4.90;;
76964;SDS011;65903;51.452;7.198;2023-12-04T05:05:04;8.00;;;5.68;;
76964;SDS011;65903;51.452;7.198;2023-12-04T05:06:05;6.68;;;4.82;;
76964;SDS011;65903;51.452;7.198;2023-12-04T05:07:07;8.50;;;6.05;;
76964;SDS011;65903;51.452;7.198;2023-12-04T05:08:07;8.63;;;5.63;;
76964;SDS011;65903;51.452;7.198;2023-12-04T05:09:08;6.88;;;5.13;;
76964;SDS011;65903;51.452;7.198;2023-12-04T05:10:09;6.07;;;4.68;;
76964;SDS011;65903;51.452;7.198;2023-12-04T05:11:09;7.88;;;4.38;;
76964;SDS011;65903;51.452;7.198;2023-12-04T05:12:10;6.32;;;4.55;;
76964;SDS011;65903;51.452;7.198;2023-12-04T05:13:10;6.80;;;4.55;;
76964;SDS011;65903;51.452;7.198;2023-12-04T05:14:11;7.32;;;5.43;;
76964;SDS011;65903;51.452;7.198;2023-12-04T05:15:11;7.88;;;5.00;;
76964;SDS011;65903;51.452;7.198;2023-12-04T05:16:13;6.20;;;4.47;;
76964;SDS011;65903;51.452;7.198;2023-12-04T05:17:16;8.15;;;5.60;;
76964;SDS011;65903;51.452;7.198;2023-12-04T05:18:16;6.50;;;4.57;;
76964;SDS011;65903;51.452;7.198;2023-12-04T05:19:16;5.95;;;4.75;;
76964;SDS011;65903;51.452;7.198;2023-12-04T05:20:17;6.30;;;4.78;;
76964;SDS011;65903;51.452;7.198;2023-12-04T05:21:17;8.05;;;5.15;;
76964;SDS011;65903;51.452;7.198;2023-12-04T05:22:18;8.18;;;5.38;;
76964;SDS011;65903;51.452;7.198;2023-12-04T05:23:19;8.20;;;5.43;;
76964;SDS011;65903;51.452;7.198;2023-12-04T05:24:20;6.85;;;5.15;;
76964;SDS011;65903;51.452;7.198;2023-12-04T05:25:20;7.03;;;4.60;;
76964;SDS011;65903;51.452;7.198;2023-12-04T05:26:21;6.90;;;4.75;;
76964;SDS011;65903;51.452;7.198;2023-12-04T05:27:22;7.70;;;4.80;;
76964;SDS011;65903;51.452;7.198;2023-12-04T05:28:23;5.85;;;4.55;;
76964;SDS011;65903;51.452;7.198;2023-12-04T05:29:23;7.40;;;5.15;;
76964;SDS011;65903;51.452;7.198;2023-12-04T05:30:24;7.30;;;5.25;;
76964;SDS011;65903;51.452;7.198;2023-12-04T05:31:24;6.10;;;4.90;;
76964;SDS011;65903;51.452;7.198;2023-12-04T05:32:24;8.55;;;5.30;;
76964;SDS011;65903;51.452;7.198;2023-12-04T05:33:25;9.05;;;5.80;;
76964;SDS011;65903;51.452;7.198;2023-12-04T05:34:25;6.93;;;4.88;;
76964;SDS011;65903;51.452;7.198;2023-12-04T05:35:27;6.57;;;4.90;;
76964;SDS011;65903;51.452;7.198;2023-12-04T05:36:28;6.05;;;4.63;;
76964;SDS011;65903;51.452;7.198;2023-12-04T05:37:29;7.03;;;5.55;;
76964;SDS011;65903;51.452;7.198;2023-12-04T05:38:30;6.95;;;4.93;;
76964;SDS011;65903;51.452;7.198;2023-12-04T05:39:31;8.52;;;6.30;;
76964;SDS011;65903;51.452;7.198;2023-12-04T05:40:31;9.90;;;6.40;;
76964;SDS011;65903;51.452;7.198;2023-12-04T05:41:32;8.65;;;5.80;;
76964;SDS011;65903;51.452;7.198;2023-12-04T05:42:32;8.57;;;6.05;;
76964;SDS011;65903;51.452;7.198;2023-12-04T05:43:32;7.55;;;5.03;;
76964;SDS011;65903;51.452;7.198;2023-12-04T05:44:33;7.88;;;4.63;;
76964;SDS011;65903;51.452;7.198;2023-12-04T05:45:34;6.85;;;5.18;;
76964;SDS011;65903;51.452;7.198;2023-12-04T05:46:34;8.32;;;5.30;;
76964;SDS011;65903;51.452;7.198;2023-12-04T05:47:35;9.80;;;5.70;;
76964;SDS011;65903;51.452;7.198;2023-12-04T05:48:35;8.77;;;5.57;;
76964;SDS011;65903;51.452;7.198;2023-12-04T05:49:35;8.27;;;5.38;;
76964;SDS011;65903;51.452;7.198;2023-12-04T05:50:36;7.60;;;4.93;;
76964;SDS011;65903;51.452;7.198;2023-12-04T05:51:37;9.10;;;5.53;;
76964;SDS011;65903;51.452;7.198;2023-12-04T05:52:37;7.78;;;5.50;;
76964;SDS011;65903;51.452;7.198;2023-12-04T05:53:39;6.60;;;5.18;;
76964;SDS011;65903;51.452;7.198;2023-12-04T05:54:40;8.82;;;6.07;;
76964;SDS011;65903;51.452;7.198;2023-12-04T05:55:41;9.68;;;6.13;;
76964;SDS011;65903;51.452;7.198;2023-12-04T05:56:41;8.63;;;5.88;;
76964;SDS011;65903;51.452;7.198;2023-12-04T05:57:43;5.57;;;3.83;;
76964;SDS011;65903;51.452;7.198;2023-12-04T05:58:43;8.10;;;5.63;;
76964;SDS011;65903;51.452;7.198;2023-12-04T05:59:45;5.72;;;4.28;;
76964;SDS011;65903;51.452;7.198;2023-12-04T06:00:46;6.60;;;4.10;;
76964;SDS011;65903;51.452;7.198;2023-12-04T06:01:46;8.13;;;4.82;;
76964;SDS011;65903;51.452;7.198;2023-12-04T06:02:47;7.20;;;4.22;;
76964;SDS011;65903;51.452;7.198;2023-12-04T06:03:48;9.07;;;5.35;;
76964;SDS011;65903;51.452;7.198;2023-12-04T06:04:48;7.90;;;5.07;;
76964;SDS011;65903;51.452;7.198;2023-12-04T06:05:49;7.65;;;5.82;;
76964;SDS011;65903;51.452;7.198;2023-12-04T06:06:49;7.57;;;4.78;;
76964;SDS011;65903;51.452;7.198;2023-12-04T06:07:51;7.78;;;5.40;;